Terminal Aerodrome Forecast
Issued by NWS

Home | Current Version | Previous Version | Graphics & Text | Print | Product List | Glossary Off
Versions: 1 2 3 4 5 6 7 8 9 10 11 12 13 14 15 16 17 18 19 20 21 22 23 24 25 26 27 28 29

813
FTUS43 KDDC 260520
TAFHYS
TAF
KHYS 260520Z 2606/2706 09009KT P6SM FEW040 SCT150
     FM260900 11011KT 3SM BR BKN003
      TEMPO 2611/2613 5SM BR SCT005 BKN015
     FM261300 13009KT P6SM BKN035
     FM262200 18016KT P6SM VCSH SCT250=

USA.gov is the U.S. government's official web portal to all federal, state and local government web resources and services.